createdAt,value
2022-08-05T00:01:27.613Z,5.00
2022-08-05T00:06:33.372Z,5.57
2022-08-05T00:11:47.323Z,3.03
2022-08-05T00:16:52.448Z,3.10
2022-08-05T00:21:56.967Z,3.77
2022-08-05T00:27:00.832Z,3.50
2022-08-05T00:32:13.170Z,4.33
2022-08-05T00:37:17.740Z,3.77
2022-08-05T00:42:34.467Z,3.87
2022-08-05T00:47:56.657Z,7.07
2022-08-05T00:52:59.512Z,3.77
2022-08-05T00:58:02.148Z,4.83
2022-08-05T01:03:07.860Z,5.17
2022-08-05T01:08:42.323Z,5.73
2022-08-05T01:13:59.767Z,5.57
2022-08-05T01:19:56.508Z,4.90
2022-08-05T01:25:41.079Z,5.77
2022-08-05T01:31:08.726Z,6.63
2022-08-05T01:36:16.192Z,5.90
2022-08-05T01:41:25.573Z,6.37
2022-08-05T01:46:42.352Z,6.97
2022-08-05T01:51:51.928Z,5.97
2022-08-05T01:58:11.867Z,4.97
2022-08-05T02:02:28.512Z,6.97
2022-08-05T02:07:33.749Z,7.87
2022-08-05T02:12:55.698Z,10.23
2022-08-05T02:18:30.569Z,9.83
2022-08-05T02:23:40.071Z,8.60
2022-08-05T02:28:45.679Z,8.73
2022-08-05T02:33:57.721Z,7.83
2022-08-05T02:39:04.358Z,8.43
2022-08-05T02:44:13.846Z,7.20
2022-08-05T02:49:17.484Z,7.00
2022-08-05T02:54:34.822Z,6.47
2022-08-05T02:59:48.092Z,6.70
2022-08-05T03:04:55.200Z,4.30
2022-08-05T03:09:57.750Z,6.73
2022-08-05T03:15:00.289Z,7.43
2022-08-05T03:20:03.634Z,7.27
2022-08-05T03:25:31.717Z,7.03
2022-08-05T03:30:33.578Z,7.17
2022-08-05T03:35:41.121Z,6.87
2022-08-05T03:40:48.619Z,7.47
2022-08-05T03:45:58.117Z,7.80
2022-08-05T03:52:38.911Z,8.07
2022-08-05T03:56:46.242Z,9.13
2022-08-05T04:01:51.888Z,10.17
2022-08-05T04:06:55.465Z,10.53
2022-08-05T04:11:59.157Z,14.00
2022-08-05T04:17:03.134Z,16.20
2022-08-05T04:22:09.221Z,18.03
2022-08-05T04:27:15.311Z,19.50
2022-08-05T04:32:20.155Z,18.90
2022-08-05T04:38:02.541Z,21.37
2022-08-05T04:42:56.150Z,21.60
2022-08-05T04:48:04.755Z,22.13
2022-08-05T04:53:08.510Z,21.13
2022-08-05T04:58:13.634Z,21.90
2022-08-05T05:03:22.561Z,20.90
2022-08-05T05:08:26.565Z,21.87
2022-08-05T05:13:43.357Z,21.93
2022-08-05T05:19:08.939Z,21.93
2022-08-05T05:24:09.030Z,20.50
2022-08-05T05:29:14.752Z,23.63
2022-08-05T05:34:21.160Z,24.77
2022-08-05T05:39:26.598Z,24.20
2022-08-05T05:44:37.694Z,24.13
2022-08-05T05:49:45.735Z,24.80
2022-08-05T05:55:13.636Z,22.60
2022-08-05T06:00:19.457Z,23.40
2022-08-05T06:05:22.535Z,23.83
2022-08-05T06:10:25.061Z,23.27
2022-08-05T06:16:30.954Z,19.90
2022-08-05T06:20:54.347Z,19.77
2022-08-05T06:26:12.684Z,18.23
2022-08-05T06:31:21.884Z,19.20
2022-08-05T06:36:25.955Z,17.27
2022-08-05T06:41:28.474Z,18.10
2022-08-05T06:46:37.064Z,19.43
2022-08-05T06:51:40.672Z,19.77
2022-08-05T06:56:54.872Z,18.00
2022-08-05T07:02:06.354Z,17.60
2022-08-05T07:07:08.902Z,15.00
2022-08-05T07:12:31.259Z,16.30
2022-08-05T07:18:02.424Z,14.83
2022-08-05T07:22:56.012Z,15.23
2022-08-05T07:28:03.813Z,14.90
2022-08-05T07:33:15.931Z,14.80
2022-08-05T07:38:32.439Z,12.83
2022-08-05T07:43:37.298Z,12.77
2022-08-05T07:49:01.863Z,11.47
2022-08-05T07:54:02.078Z,11.80
2022-08-05T07:59:04.357Z,14.73
2022-08-05T08:04:10.857Z,9.73
2022-08-05T08:09:13.617Z,9.37
2022-08-05T08:14:19.189Z,9.53
2022-08-05T08:20:44.014Z,11.03
2022-08-05T08:24:51.370Z,8.40
2022-08-05T08:30:06.501Z,8.77
2022-08-05T08:35:17.534Z,7.53
2022-08-05T08:40:22.085Z,10.23
2022-08-05T08:45:29.471Z,6.80
2022-08-05T08:51:03.296Z,6.63
2022-08-05T08:56:03.653Z,5.80
2022-08-05T09:01:11.037Z,7.97
2022-08-05T09:06:21.059Z,5.97
2022-08-05T09:11:52.958Z,6.57
2022-08-05T09:16:49.624Z,10.23
2022-08-05T09:22:22.813Z,5.47
2022-08-05T09:28:03.962Z,5.87
2022-08-05T09:33:02.307Z,6.57
2022-08-05T09:38:16.422Z,6.83
2022-08-05T09:43:41.933Z,6.10
2022-08-05T09:49:03.696Z,7.13
2022-08-05T09:54:09.400Z,5.70
2022-08-05T09:59:17.060Z,5.60
2022-08-05T10:04:19.761Z,5.23
2022-08-05T10:09:45.279Z,4.13
2022-08-05T10:14:47.858Z,4.90
2022-08-05T10:20:04.305Z,5.63
2022-08-05T10:25:14.449Z,7.10
2022-08-05T10:31:19.891Z,6.33
2022-08-05T10:35:40.562Z,5.30
2022-08-05T10:40:49.701Z,5.57
2022-08-05T10:46:06.163Z,4.70
2022-08-05T10:51:22.087Z,6.33
2022-08-05T10:56:30.825Z,5.40
2022-08-05T11:01:55.644Z,6.43
2022-08-05T11:07:01.721Z,5.93
2022-08-05T11:12:04.699Z,7.10
2022-08-05T11:17:58.705Z,4.37
2022-08-05T11:22:54.001Z,4.93
2022-08-05T11:28:11.696Z,4.90
2022-08-05T11:33:43.816Z,4.13
2022-08-05T11:38:51.746Z,5.53
2022-08-05T11:44:04.819Z,5.23
2022-08-05T11:49:13.671Z,6.17
2022-08-05T11:54:34.486Z,4.63
2022-08-05T11:59:49.814Z,6.13
2022-08-05T12:04:59.372Z,4.33
2022-08-05T12:10:09.329Z,5.60
2022-08-05T12:15:38.327Z,6.33
2022-08-05T12:20:42.749Z,5.20
2022-08-05T12:25:56.923Z,5.33
2022-08-05T12:31:02.059Z,5.80
2022-08-05T12:36:08.229Z,5.70
2022-08-05T12:41:16.260Z,6.10
2022-08-05T12:46:29.292Z,4.63
2022-08-05T12:52:13.827Z,5.13
2022-08-05T12:57:09.685Z,4.20
2022-08-05T13:02:15.465Z,3.83
2022-08-05T13:07:41.367Z,4.27
2022-08-05T13:12:51.233Z,3.60
2022-08-05T13:18:00.176Z,3.67
2022-08-05T13:23:07.144Z,4.73
2022-08-05T13:28:10.704Z,5.47
2022-08-05T13:33:14.349Z,4.63
2022-08-05T13:38:36.279Z,3.27
2022-08-05T13:43:54.371Z,3.03
2022-08-05T13:49:01.044Z,3.87
2022-08-05T13:54:03.731Z,3.33
2022-08-05T13:59:20.132Z,3.63
2022-08-05T14:04:42.737Z,3.50
2022-08-05T14:09:52.576Z,2.37
2022-08-05T14:14:56.112Z,3.67
2022-08-05T14:20:04.652Z,4.13
2022-08-05T14:25:21.657Z,3.80
2022-08-05T14:30:26.400Z,2.20
2022-08-05T14:35:37.226Z,3.00
2022-08-05T14:40:51.746Z,2.50
2022-08-05T14:45:54.266Z,2.73
2022-08-05T14:50:56.635Z,2.20
2022-08-05T14:55:59.302Z,3.47
2022-08-05T15:01:02.046Z,3.63
2022-08-05T15:06:07.402Z,1.97
2022-08-05T15:11:16.192Z,1.20
2022-08-05T15:16:18.704Z,2.03
2022-08-05T15:21:21.528Z,2.47
2022-08-05T15:26:32.182Z,2.13
2022-08-05T15:31:35.152Z,2.40
2022-08-05T15:36:38.061Z,1.83
2022-08-05T15:41:58.083Z,3.27
2022-08-05T15:47:01.723Z,2.70
2022-08-05T15:52:16.603Z,1.87
2022-08-05T15:57:26.906Z,2.07
2022-08-05T16:02:36.387Z,2.10
2022-08-05T16:07:38.957Z,1.97
2022-08-05T16:12:49.043Z,2.07
2022-08-05T16:17:57.504Z,4.33
2022-08-05T16:23:00.932Z,1.50
2022-08-05T16:28:06.396Z,2.87
2022-08-05T16:33:12.069Z,1.63
2022-08-05T16:38:24.255Z,1.40
2022-08-05T16:43:29.044Z,2.07
2022-08-05T16:48:33.500Z,1.70
2022-08-05T16:54:04.084Z,2.60
2022-08-05T16:59:07.574Z,2.00
2022-08-05T17:04:10.824Z,1.63
2022-08-05T17:09:13.211Z,1.93
2022-08-05T17:14:34.172Z,1.13
2022-08-05T17:19:37.178Z,2.00
2022-08-05T17:24:40.936Z,0.53
2022-08-05T17:29:52.780Z,2.77
2022-08-05T17:35:02.559Z,1.90
2022-08-05T17:40:10.303Z,1.33
2022-08-05T17:45:20.309Z,1.93
2022-08-05T17:50:29.600Z,1.50
2022-08-05T17:55:38.449Z,1.10
2022-08-05T18:00:47.904Z,1.77
2022-08-05T18:05:54.268Z,1.40
2022-08-05T18:10:56.955Z,2.57
2022-08-05T18:15:59.545Z,1.47
2022-08-05T18:21:02.951Z,1.30
2022-08-05T18:26:05.927Z,1.50
2022-08-05T18:31:10.192Z,1.10
2022-08-05T18:36:15.071Z,1.90
2022-08-05T18:41:56.033Z,1.00
2022-08-05T18:46:41.071Z,1.93
2022-08-05T18:52:08.617Z,1.83
2022-08-05T18:57:15.433Z,1.23
2022-08-05T19:02:27.732Z,1.37
2022-08-05T19:07:42.334Z,1.30
2022-08-05T19:12:49.089Z,2.23
2022-08-05T19:18:09.559Z,1.80
2022-08-05T19:24:03.774Z,2.60
2022-08-05T19:28:37.496Z,2.50
2022-08-05T19:33:48.324Z,0.90
2022-08-05T19:39:01.530Z,2.00
2022-08-05T19:44:13.685Z,2.57
2022-08-05T19:49:17.800Z,2.03
2022-08-05T19:54:22.831Z,1.40
2022-08-05T20:00:00.675Z,1.67
2022-08-05T20:04:59.007Z,2.73
2022-08-05T20:10:04.908Z,2.17
2022-08-05T20:15:48.815Z,2.83
2022-08-05T20:20:47.049Z,1.17
2022-08-05T20:25:49.475Z,3.10
2022-08-05T20:30:54.750Z,1.17
2022-08-05T20:35:57.492Z,1.57
2022-08-05T20:41:01.270Z,1.97
2022-08-05T20:46:12.521Z,2.57
2022-08-05T20:51:20.981Z,0.97
2022-08-05T20:56:31.833Z,5.23
2022-08-05T21:01:38.456Z,2.00
2022-08-05T21:06:45.236Z,1.87
2022-08-05T21:12:10.395Z,4.10
2022-08-05T21:17:10.705Z,1.73
2022-08-05T21:22:13.218Z,2.73
2022-08-05T21:27:16.901Z,2.37
2022-08-05T21:32:20.019Z,1.77
2022-08-05T21:37:22.753Z,1.90
2022-08-05T21:42:40.838Z,2.53
2022-08-05T21:47:56.846Z,2.80
2022-08-05T21:53:16.040Z,3.60
2022-08-05T21:58:19.936Z,2.30
2022-08-05T22:03:48.473Z,1.73
2022-08-05T22:08:51.823Z,1.70
2022-08-05T22:14:05.961Z,2.33
2022-08-05T22:20:01.964Z,1.90
2022-08-05T22:24:57.926Z,4.17
2022-08-05T22:30:01.535Z,2.20
2022-08-05T22:35:04.204Z,2.83
2022-08-05T22:40:07.948Z,3.87
2022-08-05T22:45:11.521Z,3.10
2022-08-05T22:50:20.707Z,1.97
2022-08-05T22:55:26.120Z,1.87
2022-08-05T23:00:28.673Z,2.90
2022-08-05T23:05:36.008Z,2.03
2022-08-05T23:10:39.259Z,3.07
2022-08-05T23:15:41.552Z,2.03
2022-08-05T23:20:45.520Z,3.97
2022-08-05T23:25:54.931Z,2.50
2022-08-05T23:31:15.756Z,3.90
2022-08-05T23:36:19.118Z,3.30
2022-08-05T23:41:21.981Z,2.77
2022-08-05T23:46:26.432Z,2.77
2022-08-05T23:51:53.947Z,3.03
2022-08-05T23:57:03.982Z,2.63
